Time;durP1;ratioP1;P1;durP2;ratioP2;P2;SDS_P1;SDS_P2;PMS_P1;PMS_P2;Temp;Humidity;BMP_temperature;BMP_pressure;BME280_temperature;BME280_humidity;BME280_pressure;Samples;Min_cycle;Max_cycle;Signal;HPM_P1;HPM_P2
2020/12/24 00:00:31;;;;;;;75.17;36.45;;;;;;;5.24;91.26;99516.80;1634182;87;21893;-65
2020/12/24 00:02:56;;;;;;;85.72;39.53;;;;;;;5.24;91.49;99507.64;1635445;87;21253;-67
2020/12/24 00:05:23;;;;;;;83.00;39.80;;;;;;;5.26;91.86;99504.39;1637273;87;23740;-67
2020/12/24 00:07:48;;;;;;;84.32;39.95;;;;;;;5.29;92.01;99498.88;1637246;87;21225;-67
2020/12/24 00:10:15;;;;;;;87.90;39.63;;;;;;;5.32;92.08;99497.30;1632449;87;26767;-67
2020/12/24 00:12:42;;;;;;;82.80;39.50;;;;;;;5.34;92.50;99497.98;1632164;87;22232;-67
2020/12/24 00:15:08;;;;;;;90.00;40.45;;;;;;;5.42;92.13;99491.23;1635896;87;21682;-67
2020/12/24 00:17:34;;;;;;;87.42;41.33;;;;;;;5.46;92.11;99489.51;1635824;87;21700;-67
2020/12/24 00:20:00;;;;;;;85.32;41.42;;;;;;;5.42;92.45;99489.92;1636791;86;21696;-66
2020/12/24 00:22:26;;;;;;;88.25;39.90;;;;;;;5.40;93.12;99488.27;1635618;87;21699;-65
2020/12/24 00:24:52;;;;;;;84.83;40.30;;;;;;;5.42;93.10;99486.00;1635018;87;21936;-66
2020/12/24 00:27:18;;;;;;;83.82;39.15;;;;;;;5.48;93.00;99479.70;1634113;86;27154;-65
2020/12/24 00:29:43;;;;;;;82.17;39.43;;;;;;;5.47;93.40;99470.22;1636487;87;25681;-65
2020/12/24 00:32:09;;;;;;;82.17;38.78;;;;;;;5.50;93.43;99459.47;1634131;87;28446;-66
2020/12/24 00:34:35;;;;;;;82.10;39.70;;;;;;;5.62;93.26;99452.25;1635930;87;26773;-68
2020/12/24 00:37:01;;;;;;;81.22;39.40;;;;;;;5.72;93.24;99447.83;1636170;85;22003;-66
2020/12/24 00:39:27;;;;;;;75.52;36.53;;;;;;;5.79;93.06;99440.71;1621663;87;27047;-66
2020/12/24 00:41:52;;;;;;;75.15;36.90;;;;;;;5.91;93.05;99429.09;1622019;87;21221;-68
2020/12/24 00:44:20;;;;;;;73.92;36.98;;;;;;;5.93;92.86;99424.52;1624214;87;28436;-67
2020/12/24 00:46:45;;;;;;;74.53;36.83;;;;;;;5.93;92.74;99419.27;1620129;87;21260;-66
2020/12/24 00:49:11;;;;;;;75.92;36.45;;;;;;;5.91;92.97;99413.36;1620916;87;22575;-66
2020/12/24 00:51:37;;;;;;;72.00;35.65;;;;;;;5.86;93.44;99407.73;1624931;87;27534;-65
2020/12/24 00:54:03;;;;;;;65.75;34.00;;;;;;;5.90;93.37;99406.46;1621528;87;25285;-66
2020/12/24 00:56:29;;;;;;;68.20;34.98;;;;;;;5.90;93.66;99399.91;1621863;87;21223;-66
2020/12/24 00:58:55;;;;;;;62.62;31.15;;;;;;;5.89;94.15;99394.34;1645282;86;26884;-66
2020/12/24 01:01:21;;;;;;;60.28;31.95;;;;;;;5.91;94.33;99402.88;1643905;86;22226;-67
2020/12/24 01:03:46;;;;;;;63.33;32.20;;;;;;;5.92;94.45;99392.75;1637429;85;27060;-66
2020/12/24 01:06:12;;;;;;;62.40;31.00;;;;;;;5.93;94.40;99398.31;1640352;86;25332;-67
2020/12/24 01:08:38;;;;;;;63.23;31.02;;;;;;;5.94;94.69;99399.97;1641418;86;28490;-67
2020/12/24 01:11:04;;;;;;;60.73;32.08;;;;;;;5.94;94.78;99392.11;1640828;86;26895;-66
2020/12/24 01:13:29;;;;;;;60.70;30.35;;;;;;;5.99;94.78;99392.52;1642067;86;21949;-65
2020/12/24 01:15:57;;;;;;;58.63;29.63;;;;;;;6.04;94.85;99392.09;1643580;86;27205;-67
2020/12/24 01:18:23;;;;;;;;;;;;;;;6.08;94.95;99386.41;1624386;87;21702;-67
2020/12/24 01:20:48;;;;;;;53.83;27.15;;;;;;;6.13;95.20;99385.16;1610893;87;20490;-66
2020/12/24 01:23:14;;;;;;;53.58;28.05;;;;;;;6.12;95.16;99375.14;1683089;83;26796;-66
2020/12/24 01:25:40;;;;;;;52.20;28.55;;;;;;;6.16;95.20;99375.19;1681908;84;21967;-66
2020/12/24 01:28:05;;;;;;;48.17;25.00;;;;;;;6.20;95.24;99364.77;1679498;83;27172;-66
2020/12/24 01:30:31;;;;;;;50.50;24.95;;;;;;;6.25;95.28;99355.95;1675186;84;25815;-67
2020/12/24 01:32:57;;;;;;;46.02;24.37;;;;;;;6.17;96.10;99348.02;1681784;84;28888;-67
2020/12/24 01:35:23;;;;;;;46.42;24.12;;;;;;;6.27;95.82;99334.84;1682285;84;27316;-66
2020/12/24 01:37:48;;;;;;;45.63;23.55;;;;;;;6.28;96.00;99332.06;1684048;83;22565;-66
2020/12/24 01:40:14;;;;;;;41.05;22.50;;;;;;;6.29;96.22;99327.64;1683481;84;27446;-65
2020/12/24 01:42:40;;;;;;;39.90;21.62;;;;;;;6.27;96.39;99311.23;1677967;84;26036;-66
2020/12/24 01:45:06;;;;;;;38.95;21.12;;;;;;;6.22;96.71;99303.82;1679456;84;28425;-66
2020/12/24 01:47:32;;;;;;;42.90;22.37;;;;;;;6.28;96.69;99296.67;1681381;84;27048;-66
2020/12/24 01:49:57;;;;;;;43.17;22.40;;;;;;;6.27;96.91;99290.27;1681228;84;22220;-65
2020/12/24 01:52:38;;;;;;;42.13;21.20;;;;;;;6.38;97.04;99287.41;1681304;84;27042;-66
2020/12/24 01:55:09;;;;;;;39.30;21.82;;;;;;;6.47;96.70;99277.33;1684278;84;21262;-65
2020/12/24 01:57:35;;;;;;;40.33;20.50;;;;;;;6.62;96.70;99262.37;1678976;84;21261;-65
2020/12/24 02:00:08;;;;;;;38.83;20.25;;;;;;;6.65;95.93;99259.45;1679304;84;21257;-65
2020/12/24 02:02:34;;;;;;;38.40;19.98;;;;;;;6.61;95.92;99243.17;1686786;84;21473;-65
2020/12/24 02:05:00;;;;;;;36.50;20.32;;;;;;;6.58;95.91;99237.42;1683402;83;27000;-65
2020/12/24 02:07:26;;;;;;;35.38;19.50;;;;;;;6.59;95.94;99234.64;1679397;84;25428;-66
2020/12/24 02:09:52;;;;;;;37.95;19.70;;;;;;;6.58;96.15;99237.42;1683363;84;28421;-67
2020/12/24 02:12:18;;;;;;;33.23;18.37;;;;;;;6.48;96.61;99227.03;1684228;83;26784;-66
2020/12/24 02:14:44;;;;;;;36.60;19.40;;;;;;;6.51;96.76;99221.94;1682540;84;21619;-66
2020/12/24 02:17:10;;;;;;;35.15;19.82;;;;;;;6.50;97.02;99213.76;1684371;84;27009;-67
2020/12/24 02:19:36;;;;;;;37.83;20.92;;;;;;;6.51;97.08;99205.74;1684624;84;25575;-66
2020/12/24 02:22:02;;;;;;;37.17;19.85;;;;;;;6.44;97.16;99189.77;1680584;84;21213;-67
2020/12/24 02:24:28;;;;;;;37.35;20.60;;;;;;;6.50;97.16;99193.59;1688234;84;21213;-66
2020/12/24 02:26:54;;;;;;;37.58;20.48;;;;;;;6.53;97.20;99187.23;1685919;83;21881;-65
2020/12/24 02:29:21;;;;;;;34.70;19.82;;;;;;;6.54;97.49;99187.55;1685010;83;21417;-66
2020/12/24 02:31:47;;;;;;;32.80;19.20;;;;;;;6.60;97.20;99177.75;1682874;84;21233;-66
2020/12/24 02:34:12;;;;;;;35.50;20.43;;;;;;;6.58;97.22;99177.09;1683430;84;21229;-65
2020/12/24 02:36:38;;;;;;;35.38;20.60;;;;;;;6.50;97.54;99170.48;1684114;84;26789;-66
2020/12/24 02:39:04;;;;;;;36.15;20.00;;;;;;;6.58;97.48;99162.66;1673399;84;22078;-66
2020/12/24 02:41:30;;;;;;;32.48;19.25;;;;;;;6.52;97.45;99154.09;1668871;85;28089;-66
2020/12/24 02:43:56;;;;;;;33.30;19.32;;;;;;;6.53;97.46;99151.31;1664179;85;25860;-66
2020/12/24 02:46:21;;;;;;;30.97;18.50;;;;;;;6.53;97.46;99149.20;1665070;85;28865;-66
2020/12/24 02:48:47;;;;;;;35.48;19.40;;;;;;;6.54;97.61;99144.27;1665060;84;26881;-67
2020/12/24 02:51:14;;;;;;;30.60;17.82;;;;;;;6.59;97.37;99135.46;1659452;85;22192;-66
2020/12/24 02:53:39;;;;;;;30.00;17.52;;;;;;;6.62;97.17;99135.16;1668752;84;21242;-66
2020/12/24 02:56:05;;;;;;;30.85;17.27;;;;;;;6.58;97.21;99122.00;1666857;85;25310;-67
2020/12/24 02:58:31;;;;;;;24.77;15.32;;;;;;;6.58;97.02;99120.69;1674605;85;28349;-66
2020/12/24 03:00:57;;;;;;;23.47;14.60;;;;;;;6.57;96.81;99122.97;1667176;85;27183;-67
2020/12/24 03:03:26;;;;;;;23.45;14.07;;;;;;;6.57;96.72;99121.66;1667489;84;22318;-67
2020/12/24 03:05:52;;;;;;;20.72;13.60;;;;;;;6.57;96.91;99121.66;1666802;85;21222;-66
2020/12/24 03:08:20;;;;;;;19.25;12.28;;;;;;;6.56;96.60;99116.91;1663646;85;22331;-66
2020/12/24 03:10:46;;;;;;;18.50;11.10;;;;;;;6.64;96.50;99106.95;1626312;85;21240;-66
2020/12/24 03:13:12;;;;;;;16.52;10.93;;;;;;;6.69;96.31;99099.42;1665465;85;26854;-67
2020/12/24 03:15:37;;;;;;;16.95;10.45;;;;;;;6.78;95.87;99098.98;1664554;85;21378;-68
2020/12/24 03:18:03;;;;;;;15.58;9.88;;;;;;;6.73;95.34;99092.89;1665424;84;27528;-68
2020/12/24 03:20:29;;;;;;;13.15;9.00;;;;;;;6.75;95.11;99100.11;1672769;84;25404;-67
2020/12/24 03:22:54;;;;;;;12.45;8.48;;;;;;;6.80;94.73;99100.45;1632926;86;28365;-66
2020/12/24 03:25:20;;;;;;;11.85;8.53;;;;;;;6.80;94.45;99099.13;1627562;86;26788;-66
2020/12/24 03:27:46;;;;;;;12.65;8.55;;;;;;;6.80;94.41;99097.02;1599746;88;22053;-67
2020/12/24 03:30:12;;;;;;;11.33;7.80;;;;;;;6.78;94.31;99091.92;1666641;85;27110;-67
2020/12/24 03:32:37;;;;;;;11.78;8.08;;;;;;;6.83;94.39;99092.76;1660945;85;25826;-67
2020/12/24 03:35:04;;;;;;;12.05;7.53;;;;;;;6.86;94.08;99089.01;1669981;85;29552;-67
2020/12/24 03:37:30;;;;;;;11.35;7.67;;;;;;;6.83;93.90;99069.95;1643080;85;21244;-68
2020/12/24 03:39:56;;;;;;;12.25;8.03;;;;;;;6.77;93.92;99077.14;1618280;86;22011;-67
2020/12/24 03:42:22;;;;;;;10.88;7.30;;;;;;;6.67;94.02;99071.22;1619087;86;27136;-67
2020/12/24 03:44:47;;;;;;;11.45;7.75;;;;;;;6.69;94.26;99063.20;1615564;86;25477;-67
2020/12/24 03:47:13;;;;;;;11.08;7.95;;;;;;;6.66;94.35;99043.33;1619986;86;28366;-67
2020/12/24 03:49:39;;;;;;;11.60;7.72;;;;;;;6.59;94.78;99058.08;1614410;86;26734;-67
2020/12/24 03:52:04;;;;;;;12.93;7.95;;;;;;;6.45;95.13;99053.75;1624181;86;21943;-67
2020/12/24 03:54:30;;;;;;;11.15;7.30;;;;;;;6.51;95.11;99043.13;1620469;86;27123;-67
2020/12/24 03:56:56;;;;;;;11.63;7.50;;;;;;;6.60;94.89;99029.54;1619842;86;25286;-68
2020/12/24 03:59:22;;;;;;;12.43;7.20;;;;;;;6.60;94.94;99026.45;1621122;86;28404;-67
2020/12/24 04:01:47;;;;;;;11.53;7.30;;;;;;;6.65;94.68;99023.34;1613135;86;26904;-67
2020/12/24 04:04:13;;;;;;;11.40;7.08;;;;;;;6.62;94.78;99013.17;1618092;86;22295;-66
2020/12/24 04:06:39;;;;;;;12.35;7.45;;;;;;;6.57;94.72;99004.94;1616478;86;27048;-65
2020/12/24 04:09:05;;;;;;;9.58;6.53;;;;;;;6.61;94.85;99013.64;1621069;86;25306;-67
2020/12/24 04:11:31;;;;;;;11.75;7.08;;;;;;;6.61;94.68;99024.63;1617355;86;28393;-67
2020/12/24 04:13:57;;;;;;;11.28;7.20;;;;;;;6.65;94.67;99016.79;1613522;86;21252;-67
2020/12/24 04:16:23;;;;;;;11.45;7.55;;;;;;;6.67;94.62;99016.13;1616846;86;22446;-67
2020/12/24 04:18:49;;;;;;;9.45;6.87;;;;;;;6.70;94.49;99006.63;1620546;86;21256;-67
2020/12/24 04:21:15;;;;;;;9.73;7.05;;;;;;;6.73;94.47;98999.75;1622277;86;25390;-66
2020/12/24 04:23:40;;;;;;;10.08;7.22;;;;;;;6.71;94.51;98995.17;1619017;86;28523;-67
2020/12/24 04:26:06;;;;;;;11.20;7.10;;;;;;;6.77;94.57;98993.19;1614854;86;26797;-67
2020/12/24 04:28:32;;;;;;;10.95;6.80;;;;;;;6.81;94.49;98981.40;1627267;86;21892;-68
2020/12/24 04:30:57;;;;;;;10.63;7.47;;;;;;;6.82;94.50;98981.73;1620089;86;27173;-66
2020/12/24 04:33:23;;;;;;;12.25;7.40;;;;;;;6.82;94.89;98964.69;1613191;86;25951;-66
2020/12/24 04:35:53;;;;;;;10.38;6.95;;;;;;;6.82;95.38;98954.19;1615902;86;29520;-67
2020/12/24 04:38:19;;;;;;;11.12;7.08;;;;;;;6.88;95.42;98946.14;1616166;86;21226;-65
2020/12/24 04:40:50;;;;;;;11.25;7.10;;;;;;;6.91;95.50;98961.56;1622029;86;21856;-66
2020/12/24 04:43:17;;;;;;;10.48;6.47;;;;;;;6.98;95.31;98960.44;1620446;86;22500;-67
2020/12/24 04:45:42;;;;;;;11.73;7.28;;;;;;;6.94;95.40;98969.61;1620218;86;21240;-67
2020/12/24 04:48:08;;;;;;;12.15;7.30;;;;;;;6.93;95.48;98967.96;1620541;86;28484;-68
2020/12/24 04:50:34;;;;;;;10.85;7.00;;;;;;;6.87;95.77;98969.92;1622444;86;26925;-66
2020/12/24 04:53:00;;;;;;;10.25;6.95;;;;;;;6.94;95.67;98959.12;1611046;86;21888;-66
2020/12/24 04:55:25;;;;;;;12.00;7.60;;;;;;;6.96;95.59;98965.02;1613251;86;27054;-65
2020/12/24 04:57:51;;;;;;;10.70;7.25;;;;;;;6.96;95.64;98950.11;1616305;86;25441;-66
2020/12/24 05:00:17;;;;;;;10.15;7.20;;;;;;;6.99;95.68;98954.19;1617723;86;28883;-66
2020/12/24 05:02:43;;;;;;;11.03;7.08;;;;;;;6.96;95.98;98970.27;1622741;86;27359;-65
2020/12/24 05:05:08;;;;;;;10.80;7.37;;;;;;;6.91;96.04;98933.20;1614386;86;22134;-66
2020/12/24 05:07:34;;;;;;;9.33;6.05;;;;;;;6.89;96.24;98924.67;1607529;86;27124;-66
2020/12/24 05:10:00;;;;;;;10.20;6.72;;;;;;;6.81;96.64;98944.66;1617302;86;25458;-67
2020/12/24 05:12:28;;;;;;;11.73;7.45;;;;;;;6.59;98.00;98945.30;1620300;86;28956;-66
2020/12/24 05:14:53;;;;;;;;;;;;;;;6.71;97.94;98941.39;1624557;86;21281;-66
2020/12/24 05:17:21;;;;;;;11.33;7.00;;;;;;;6.72;98.16;98940.38;1621222;86;22033;-66
2020/12/24 05:19:49;;;;;;;12.07;8.10;;;;;;;6.75;98.24;98929.56;1594004;86;28434;-65
2020/12/24 05:22:20;;;;;;;13.43;7.95;;;;;;;6.75;98.20;98930.88;1581386;86;21621;-66
2020/12/24 05:24:46;;;;;;;11.57;7.87;;;;;;;6.79;98.13;98923.02;1618357;86;21258;-66
2020/12/24 05:27:19;;;;;;;12.82;8.85;;;;;;;6.89;97.93;98910.24;1615220;86;21265;-66
2020/12/24 05:29:45;;;;;;;15.50;9.13;;;;;;;6.93;97.90;98915.47;1623098;86;21454;-67
2020/12/24 05:32:11;;;;;;;14.15;8.90;;;;;;;6.94;97.82;98931.56;1623151;86;21289;-66
2020/12/24 05:34:37;;;;;;;13.62;9.40;;;;;;;6.91;98.30;98935.82;1617267;86;25439;-66
2020/12/24 05:37:17;;;;;;;13.18;8.30;;;;;;;6.93;98.08;98931.22;1611921;86;28533;-67
2020/12/24 05:39:47;;;;;;;15.60;10.03;;;;;;;6.81;98.97;98934.17;1625346;86;21224;-67
2020/12/24 05:42:13;;;;;;;14.38;9.63;;;;;;;6.82;99.14;98924.02;1614130;87;21711;-66
2020/12/24 05:44:39;;;;;;;16.90;9.73;;;;;;;6.93;98.75;98911.53;1626952;87;21203;-66
2020/12/24 05:47:05;;;;;;;16.77;10.35;;;;;;;6.94;98.91;98902.69;1624946;87;25487;-66
2020/12/24 05:49:31;;;;;;;14.40;9.78;;;;;;;6.98;98.97;98906.14;1625605;87;28410;-66
2020/12/24 05:52:00;;;;;;;18.70;10.18;;;;;;;7.01;99.08;98908.94;1596418;87;21239;-67
2020/12/24 05:54:30;;;;;;;17.45;10.78;;;;;;;7.07;99.42;98914.84;1623606;86;21421;-66
2020/12/24 05:56:57;;;;;;;17.20;10.98;;;;;;;7.03;99.71;98921.39;1626577;87;21269;-66
2020/12/24 05:59:28;;;;;;;18.25;11.95;;;;;;;7.10;100.00;98928.95;1621053;87;21207;-66
2020/12/24 06:02:14;;;;;;;19.70;12.40;;;;;;;7.11;100.00;98915.33;1623920;86;21209;-66
2020/12/24 06:04:51;;;;;;;16.95;11.88;;;;;;;7.05;100.00;98904.98;1622433;87;21243;-66
2020/12/24 06:07:29;;;;;;;18.45;12.18;;;;;;;7.05;100.00;98905.48;1627945;87;22306;-67
2020/12/24 06:09:54;;;;;;;21.50;13.28;;;;;;;7.05;100.00;98903.66;1621176;87;22362;-66
2020/12/24 06:12:26;;;;;;;17.62;12.30;;;;;;;7.09;100.00;98904.99;1622199;87;25757;-68
2020/12/24 06:14:56;;;;;;;20.82;14.05;;;;;;;7.17;100.00;98898.41;1624281;87;21302;-67
2020/12/24 06:17:23;;;;;;;18.55;12.88;;;;;;;7.17;100.00;98903.66;1618766;87;21534;-67
2020/12/24 06:19:50;;;;;;;20.90;13.55;;;;;;;7.25;100.00;98895.47;1629267;87;27097;-67
2020/12/24 06:22:17;;;;;;;23.90;13.25;;;;;;;7.18;100.00;98893.50;1624643;87;21267;-67
2020/12/24 06:24:58;;;;;;;21.80;14.80;;;;;;;7.19;100.00;98888.59;1601999;87;21242;-67
2020/12/24 06:27:49;;;;;;;20.88;14.53;;;;;;;7.23;100.00;98895.63;1625520;87;21281;-65
2020/12/24 06:30:24;;;;;;;20.37;14.60;;;;;;;7.30;100.00;98896.63;1626248;87;21772;-66
2020/12/24 06:32:51;;;;;;;22.05;14.87;;;;;;;7.41;100.00;98892.83;1624380;87;21657;-66
2020/12/24 06:35:39;;;;;;;23.20;15.23;;;;;;;7.47;100.00;98905.30;1619212;87;21223;-66
2020/12/24 06:38:11;;;;;;;23.42;14.85;;;;;;;7.53;100.00;98905.91;1627897;87;21716;-67
2020/12/24 06:40:39;;;;;;;23.30;15.25;;;;;;;7.58;100.00;98898.03;1625949;87;21688;-65
2020/12/24 06:43:09;;;;;;;24.40;15.53;;;;;;;7.67;100.00;98899.66;1625954;87;21236;-66
2020/12/24 06:45:37;;;;;;;25.80;16.73;;;;;;;7.67;100.00;98899.66;1624086;87;21285;-67
2020/12/24 06:48:27;;;;;;;24.37;15.95;;;;;;;7.72;100.00;98890.77;1626978;87;21264;-67
2020/12/24 06:51:02;;;;;;;23.45;15.58;;;;;;;7.78;100.00;98897.97;1620162;87;21221;-67
2020/12/24 06:53:32;;;;;;;25.88;17.17;;;;;;;7.80;100.00;98893.39;1616254;87;21707;-67
2020/12/24 06:56:22;;;;;;;24.80;16.70;;;;;;;7.83;100.00;98896.99;1625205;87;21306;-68
2020/12/24 06:59:03;;;;;;;24.67;16.00;;;;;;;7.89;100.00;98901.58;1625297;87;21603;-67
2020/12/24 07:01:35;;;;;;;25.05;16.95;;;;;;;7.91;100.00;98895.64;1625547;87;21254;-67
2020/12/24 07:04:03;;;;;;;28.92;17.35;;;;;;;7.91;100.00;98891.70;1622764;87;21273;-67
2020/12/24 07:06:49;;;;;;;26.02;16.48;;;;;;;8.00;100.00;98891.19;1626997;87;21235;-67
2020/12/24 07:09:26;;;;;;;27.93;17.17;;;;;;;8.09;100.00;98890.64;1623792;87;21239;-67
2020/12/24 07:11:55;;;;;;;;;;;;;;;8.19;100.00;98893.89;1628236;87;21387;-67
2020/12/24 07:14:35;;;;;;;24.87;15.23;;;;;;;8.26;100.00;98893.53;1627693;87;20629;-66
2020/12/24 07:17:12;;;;;;;26.12;16.65;;;;;;;8.28;100.00;98894.64;1624902;87;21217;-66
2020/12/24 07:19:44;;;;;;;27.15;17.20;;;;;;;8.38;100.00;98885.25;1621658;87;21220;-67
2020/12/24 07:22:14;;;;;;;26.75;16.30;;;;;;;8.48;100.00;98883.22;1622895;87;21260;-66
2020/12/24 07:24:39;;;;;;;23.30;15.15;;;;;;;8.58;100.00;98882.52;1625928;87;22364;-66
2020/12/24 07:27:06;;;;;;;23.35;15.40;;;;;;;8.59;100.00;98876.74;1619836;87;27034;-67
2020/12/24 07:29:33;;;;;;;26.42;16.60;;;;;;;8.64;100.00;98883.64;1625840;87;21243;-67
2020/12/24 07:32:04;;;;;;;22.85;16.12;;;;;;;8.69;100.00;98893.13;1625593;87;21235;-67
2020/12/24 07:34:34;;;;;;;22.75;15.55;;;;;;;8.77;100.00;98890.94;1625220;87;21253;-67
2020/12/24 07:37:01;;;;;;;25.12;15.78;;;;;;;8.78;100.00;98887.33;1624262;87;22200;-66
2020/12/24 07:39:27;;;;;;;23.73;15.05;;;;;;;8.78;100.00;98900.48;1604539;86;21302;-66
2020/12/24 07:41:53;;;;;;;27.17;16.55;;;;;;;8.83;100.00;98894.70;1620281;86;25327;-68
2020/12/24 07:44:19;;;;;;;23.05;15.45;;;;;;;8.87;100.00;98904.70;1641789;86;21082;-66
2020/12/24 07:46:46;;;;;;;26.30;16.67;;;;;;;8.90;100.00;98904.34;1634075;86;21241;-67
2020/12/24 07:49:12;;;;;;;22.15;15.08;;;;;;;8.89;100.00;98907.97;1638841;86;21250;-68
2020/12/24 07:51:38;;;;;;;24.27;15.95;;;;;;;8.92;100.00;98903.66;1640433;86;23617;-67
2020/12/24 07:54:17;;;;;;;22.48;14.47;;;;;;;8.97;100.00;98905.27;1646635;86;25812;-68
2020/12/24 07:56:46;;;;;;;24.30;15.32;;;;;;;9.03;100.00;98894.53;1638462;86;21221;-66
2020/12/24 07:59:13;;;;;;;30.52;16.12;;;;;;;9.05;100.00;98899.62;1641258;86;21288;-65
2020/12/24 08:04:27;;;;;;;23.70;15.93;;;;;;;9.14;100.00;98903.83;1773531;78;22573;-65
2020/12/24 08:06:53;;;;;;;25.48;15.38;;;;;;;9.12;100.00;98916.33;1753734;79;20947;-65
2020/12/24 08:09:20;;;;;;;23.52;15.50;;;;;;;9.18;100.00;98910.36;1742544;79;21268;-66
2020/12/24 08:11:58;;;;;;;22.60;14.75;;;;;;;9.20;100.00;98918.92;1761666;79;21216;-67
2020/12/24 08:14:26;;;;;;;23.50;15.25;;;;;;;9.21;100.00;98923.68;1764873;79;21577;-66
2020/12/24 08:16:53;;;;;;;21.25;14.47;;;;;;;9.30;100.00;98922.11;1750765;79;21253;-65
2020/12/24 08:19:33;;;;;;;24.18;15.58;;;;;;;9.28;100.00;98928.06;1751755;79;21518;-64
2020/12/24 08:22:07;;;;;;;23.02;15.35;;;;;;;9.34;100.00;98925.22;1753582;79;22389;-64
2020/12/24 08:24:34;;;;;;;24.85;15.83;;;;;;;9.37;100.00;98922.23;1750332;79;22454;-65
2020/12/24 08:27:00;;;;;;;24.65;14.98;;;;;;;9.41;100.00;98914.78;1756639;79;21093;-65
2020/12/24 08:29:25;;;;;;;20.77;14.07;;;;;;;9.49;100.00;98913.38;1751364;79;20964;-64
2020/12/24 08:31:51;;;;;;;22.77;15.15;;;;;;;9.50;100.00;98925.56;1749997;79;21026;-65
2020/12/24 08:34:17;;;;;;;25.70;15.72;;;;;;;9.51;100.00;98925.89;1740327;80;21080;-66
2020/12/24 08:36:46;;;;;;;22.87;14.43;;;;;;;9.62;100.00;98926.77;1742930;79;26636;-65
2020/12/24 08:39:16;;;;;;;24.05;15.08;;;;;;;9.68;100.00;98927.88;1755817;79;21154;-65
2020/12/24 08:41:45;;;;;;;23.80;14.80;;;;;;;9.77;100.00;98920.67;1747330;79;21652;-64
2020/12/24 08:44:19;;;;;;;21.75;14.38;;;;;;;9.83;100.00;98910.22;1753473;79;21682;-64
2020/12/24 08:46:45;;;;;;;21.07;13.30;;;;;;;9.81;100.00;98912.73;1750571;80;21232;-65
2020/12/24 08:49:24;;;;;;;20.08;12.30;;;;;;;9.82;100.00;98919.14;1755376;79;21241;-65
2020/12/24 08:51:51;;;;;;;20.12;12.50;;;;;;;9.85;100.00;98913.98;1749557;79;21228;-68
2020/12/24 08:54:16;;;;;;;21.27;12.53;;;;;;;9.94;100.00;98920.80;1748041;79;21256;-65
2020/12/24 08:56:47;;;;;;;18.45;11.63;;;;;;;9.93;100.00;98921.83;1751787;79;21014;-67
2020/12/24 08:59:14;;;;;;;19.52;11.53;;;;;;;9.96;100.00;98918.83;1747645;79;21285;-66
2020/12/24 09:01:43;;;;;;;16.37;10.53;;;;;;;9.95;100.00;98922.45;1759615;79;21204;-65
2020/12/24 09:04:15;;;;;;;17.07;10.45;;;;;;;9.94;100.00;98922.12;1744878;80;21177;-65
2020/12/24 09:06:42;;;;;;;16.90;10.72;;;;;;;9.96;100.00;98922.78;1748381;79;21638;-64
2020/12/24 09:09:08;;;;;;;17.52;10.00;;;;;;;9.98;100.00;98931.32;1751282;79;21404;-64
2020/12/24 09:11:34;;;;;;;15.65;8.93;;;;;;;10.02;100.00;98929.13;1752418;79;23503;-65
2020/12/24 09:14:03;;;;;;;14.78;9.15;;;;;;;10.06;100.00;98925.13;1748859;80;21193;-67
2020/12/24 09:16:34;;;;;;;14.83;9.05;;;;;;;10.12;100.00;98920.95;1750596;79;21236;-66
2020/12/24 09:19:08;;;;;;;14.00;8.48;;;;;;;10.12;100.00;98907.77;1749936;79;21188;-66
2020/12/24 09:21:34;;;;;;;12.85;8.15;;;;;;;10.09;100.00;98910.77;1747931;79;21192;-66
2020/12/24 09:24:10;;;;;;;14.85;8.05;;;;;;;10.12;100.00;98911.72;1752016;79;21223;-67
2020/12/24 09:26:47;;;;;;;13.32;7.80;;;;;;;10.10;100.00;98908.42;1752152;79;21222;-65
2020/12/24 09:29:13;;;;;;;14.70;8.40;;;;;;;10.12;100.00;98897.22;1746988;79;21197;-64
2020/12/24 09:31:39;;;;;;;13.17;7.93;;;;;;;10.11;100.00;98900.33;1752114;79;21147;-65
2020/12/24 09:34:06;;;;;;;12.68;7.20;;;;;;;10.22;100.00;98890.65;1740584;79;20935;-63
2020/12/24 09:36:32;;;;;;;12.28;7.62;;;;;;;10.24;100.00;98885.19;1747446;80;21137;-66
2020/12/24 09:38:58;;;;;;;12.90;7.50;;;;;;;10.27;100.00;98884.81;1755925;79;21284;-65
2020/12/24 09:41:23;;;;;;;13.43;7.20;;;;;;;10.30;100.00;98880.48;1748322;80;21025;-65
2020/12/24 09:43:49;;;;;;;12.53;7.00;;;;;;;10.40;100.00;98884.98;1754956;79;20960;-66
2020/12/24 09:46:15;;;;;;;13.28;7.28;;;;;;;10.44;100.00;98887.25;1748387;79;21027;-65
2020/12/24 09:48:41;;;;;;;12.23;6.95;;;;;;;10.53;100.00;98888.28;1752413;79;21166;-67
2020/12/24 09:51:07;;;;;;;11.88;6.72;;;;;;;10.56;100.00;98884.44;1754436;79;20972;-66
2020/12/24 09:53:33;;;;;;;12.88;6.80;;;;;;;10.59;100.00;98878.27;1754206;79;21082;-65
2020/12/24 09:55:59;;;;;;;10.85;6.37;;;;;;;10.62;100.00;98869.16;1749207;79;21779;-65
2020/12/24 09:58:25;;;;;;;15.78;7.33;;;;;;;10.70;100.00;98870.86;1746822;79;21004;-65
2020/12/24 10:00:51;;;;;;;12.33;7.53;;;;;;;10.75;100.00;98879.87;1742073;80;21259;-66
2020/12/24 10:03:16;;;;;;;15.48;8.15;;;;;;;10.82;100.00;98885.72;1747200;79;21078;-66
2020/12/24 10:05:42;;;;;;;12.18;6.92;;;;;;;10.89;100.00;98883.93;1749028;79;21039;-66
2020/12/24 10:08:08;;;;;;;13.62;7.60;;;;;;;10.89;99.55;98882.61;1748129;79;21504;-66
2020/12/24 10:10:34;;;;;;;11.85;7.00;;;;;;;10.87;99.60;98887.28;1751836;79;22741;-66
2020/12/24 10:13:00;;;;;;;10.95;6.92;;;;;;;10.92;99.52;98890.16;1749634;79;21644;-67
2020/12/24 10:15:25;;;;;;;12.03;6.55;;;;;;;10.90;99.35;98890.86;1747148;79;21356;-67
2020/12/24 10:17:51;;;;;;;10.82;6.70;;;;;;;10.95;99.05;98897.70;1751790;79;21401;-67
2020/12/24 10:20:17;;;;;;;10.53;6.30;;;;;;;10.88;98.87;98891.56;1753174;79;20986;-67
2020/12/24 10:22:42;;;;;;;14.20;6.60;;;;;;;10.89;99.00;98898.45;1752591;79;21010;-67
2020/12/24 10:25:08;;;;;;;11.88;7.05;;;;;;;10.86;99.08;98897.52;1746930;79;21068;-67
2020/12/24 10:27:34;;;;;;;14.18;7.25;;;;;;;10.91;98.82;98880.63;1751515;79;21037;-67
2020/12/24 10:30:00;;;;;;;12.55;7.35;;;;;;;10.90;98.66;98873.69;1744372;79;20934;-67
2020/12/24 10:32:25;;;;;;;11.65;6.75;;;;;;;10.87;98.45;98885.44;1742571;79;21069;-65
2020/12/24 10:34:51;;;;;;;10.93;6.10;;;;;;;10.83;98.56;98886.84;1756668;79;21535;-67
2020/12/24 10:37:17;;;;;;;10.50;6.17;;;;;;;10.82;98.41;98875.16;1751396;79;21811;-67
2020/12/24 10:39:43;;;;;;;10.82;6.05;;;;;;;10.82;98.45;98879.11;1757461;79;21209;-67
2020/12/24 10:42:09;;;;;;;11.43;6.12;;;;;;;10.75;98.46;98877.23;1757727;80;21039;-67
2020/12/24 10:44:34;;;;;;;13.32;6.47;;;;;;;10.79;98.61;98880.30;1742535;79;20964;-66
2020/12/24 10:47:00;;;;;;;10.08;5.78;;;;;;;10.73;98.62;98876.58;1749082;80;20969;-66
2020/12/24 10:49:26;;;;;;;11.30;5.75;;;;;;;10.73;98.62;98873.94;1752904;80;21075;-66
2020/12/24 10:51:52;;;;;;;9.20;5.78;;;;;;;10.77;98.45;98867.28;1749469;79;21063;-65
2020/12/24 10:54:18;;;;;;;10.75;6.08;;;;;;;10.79;98.33;98861.81;1751360;79;21613;-67
2020/12/24 10:56:48;;;;;;;10.32;5.70;;;;;;;10.83;98.15;98863.08;1740547;79;21272;-67
2020/12/24 10:59:15;;;;;;;10.68;5.67;;;;;;;10.83;97.86;98857.80;1751165;79;21242;-66
2020/12/24 11:01:48;;;;;;;10.93;5.60;;;;;;;10.87;97.67;98852.95;1751104;80;21649;-65
2020/12/24 11:04:14;;;;;;;14.20;6.25;;;;;;;10.86;97.61;98859.22;1753214;79;21568;-66
2020/12/24 11:06:43;;;;;;;12.47;6.53;;;;;;;10.86;97.51;98854.78;1751645;79;20975;-66
2020/12/24 11:09:07;;;;;;;;;;;;;;;10.86;97.53;98852.62;1745085;79;21746;-67
2020/12/24 11:11:34;;;;;;;14.23;6.20;;;;;;;10.83;97.50;98841.12;1751560;79;20248;-67
2020/12/24 11:14:00;;;;;;;12.70;6.90;;;;;;;10.87;97.34;98845.02;1751285;79;21811;-66
2020/12/24 11:16:26;;;;;;;14.40;6.95;;;;;;;10.90;97.34;98842.00;1747454;80;21133;-68
2020/12/24 11:18:51;;;;;;;12.03;6.10;;;;;;;10.93;97.12;98841.63;1756195;79;20969;-67
2020/12/24 11:21:20;;;;;;;13.53;6.72;;;;;;;10.86;97.39;98846.02;1751038;79;21068;-68
2020/12/24 11:23:47;;;;;;;13.18;6.47;;;;;;;10.87;97.38;98846.34;1748274;80;21259;-67
2020/12/24 11:26:24;;;;;;;13.38;6.50;;;;;;;10.84;97.31;98837.48;1750639;79;21223;-67
2020/12/24 11:28:52;;;;;;;13.93;6.55;;;;;;;10.75;97.53;98838.94;1762538;79;21241;-66